createdAt,value
2023-01-29T00:01:48.625Z,15.77
2023-01-29T00:04:58.736Z,16.95
2023-01-29T00:08:04.819Z,17.10
2023-01-29T00:11:11.100Z,16.13
2023-01-29T00:14:16.863Z,14.20
2023-01-29T00:17:22.170Z,16.02
2023-01-29T00:20:27.855Z,16.45
2023-01-29T00:23:33.442Z,16.48
2023-01-29T00:26:39.755Z,15.13
2023-01-29T00:30:02.672Z,14.30
2023-01-29T00:33:08.006Z,13.88
2023-01-29T00:36:16.157Z,13.82
2023-01-29T00:39:31.476Z,13.65
2023-01-29T00:43:04.260Z,13.90
2023-01-29T00:46:10.912Z,12.20
2023-01-29T00:49:16.418Z,12.65
2023-01-29T00:52:24.895Z,12.90
2023-01-29T00:55:30.060Z,13.65
2023-01-29T00:58:35.679Z,12.30
2023-01-29T01:01:59.307Z,11.20
2023-01-29T01:05:08.086Z,10.02
2023-01-29T01:08:32.769Z,11.02
2023-01-29T01:11:37.964Z,9.35
2023-01-29T01:14:43.512Z,12.85
2023-01-29T01:17:53.141Z,9.80
2023-01-29T01:20:59.812Z,12.15
2023-01-29T01:24:06.347Z,10.13
2023-01-29T01:27:13.518Z,10.25
2023-01-29T01:30:19.142Z,11.05
2023-01-29T01:33:25.064Z,10.80
2023-01-29T01:36:32.668Z,10.77
2023-01-29T01:39:38.008Z,10.35
2023-01-29T01:42:44.478Z,9.55
2023-01-29T01:45:50.154Z,8.80
2023-01-29T01:49:02.306Z,8.85
2023-01-29T01:52:09.154Z,9.88
2023-01-29T01:55:19.539Z,8.80
2023-01-29T01:58:30.864Z,8.27
2023-01-29T02:01:36.412Z,8.35
2023-01-29T02:05:06.766Z,9.25
2023-01-29T02:08:30.922Z,9.52
2023-01-29T02:11:36.990Z,9.35
2023-01-29T02:14:43.841Z,9.82
2023-01-29T02:17:49.046Z,8.93
2023-01-29T02:21:11.034Z,8.63
2023-01-29T02:24:54.963Z,8.45
2023-01-29T02:28:37.229Z,8.98
2023-01-29T02:31:51.944Z,9.38
2023-01-29T02:35:32.255Z,8.93
2023-01-29T02:38:48.002Z,9.88
2023-01-29T02:42:11.990Z,7.88
2023-01-29T02:45:33.270Z,9.30
2023-01-29T02:49:06.670Z,8.23
2023-01-29T02:52:34.064Z,8.75
2023-01-29T02:55:57.670Z,10.23
2023-01-29T02:59:12.725Z,9.68
2023-01-29T03:02:26.295Z,9.00
2023-01-29T03:05:45.080Z,9.35
2023-01-29T03:09:11.105Z,8.65
2023-01-29T03:12:34.404Z,8.55
2023-01-29T03:15:48.597Z,9.88
2023-01-29T03:19:37.017Z,9.93
2023-01-29T03:22:57.239Z,8.30
2023-01-29T03:26:21.350Z,8.40
2023-01-29T03:29:45.474Z,8.57
2023-01-29T03:32:52.355Z,9.73
2023-01-29T03:36:07.513Z,7.80
2023-01-29T03:39:15.779Z,8.18
2023-01-29T03:42:35.761Z,9.88
2023-01-29T03:46:22.677Z,8.30
2023-01-29T03:49:33.048Z,7.82
2023-01-29T03:53:07.072Z,8.07
2023-01-29T03:56:37.839Z,9.55
2023-01-29T04:00:08.375Z,9.25
2023-01-29T04:03:49.286Z,8.77
2023-01-29T04:07:03.493Z,9.02
2023-01-29T04:10:14.590Z,9.10
2023-01-29T04:13:21.814Z,8.40
2023-01-29T04:16:35.228Z,9.00
2023-01-29T04:20:04.807Z,9.23
2023-01-29T04:23:27.102Z,10.27
2023-01-29T04:27:21.558Z,11.15
2023-01-29T04:30:31.009Z,9.90
2023-01-29T04:34:04.281Z,9.50
2023-01-29T04:37:20.802Z,10.45
2023-01-29T04:40:33.139Z,9.55
2023-01-29T04:43:48.288Z,9.98
2023-01-29T04:47:14.777Z,11.30
2023-01-29T04:50:34.246Z,9.85
2023-01-29T04:53:55.783Z,9.60
2023-01-29T04:57:12.550Z,10.57
2023-01-29T05:00:43.541Z,9.93
2023-01-29T05:03:53.211Z,11.70
2023-01-29T05:07:04.690Z,11.73
2023-01-29T05:10:13.446Z,10.95
2023-01-29T05:13:21.359Z,12.15
2023-01-29T05:16:30.948Z,11.02
2023-01-29T05:19:36.314Z,11.57
2023-01-29T05:22:42.839Z,11.52
2023-01-29T05:25:50.191Z,11.77
2023-01-29T05:28:56.276Z,12.23
2023-01-29T05:32:02.049Z,11.30
2023-01-29T05:35:07.888Z,15.57
2023-01-29T05:38:14.314Z,11.40
2023-01-29T05:41:20.177Z,12.85
2023-01-29T05:44:25.576Z,12.38
2023-01-29T05:47:31.440Z,11.70
2023-01-29T05:50:36.614Z,12.55
2023-01-29T05:53:41.792Z,12.38
2023-01-29T05:56:47.056Z,11.77
2023-01-29T05:59:52.431Z,12.30
2023-01-29T06:02:59.467Z,12.68
2023-01-29T06:06:05.259Z,12.07
2023-01-29T06:09:12.203Z,10.68
2023-01-29T06:12:17.477Z,11.70
2023-01-29T06:15:22.646Z,11.95
2023-01-29T06:18:27.815Z,11.50
2023-01-29T06:21:32.881Z,13.02
2023-01-29T06:24:38.148Z,14.82
2023-01-29T06:27:43.679Z,11.70
2023-01-29T06:30:48.911Z,11.75
2023-01-29T06:33:54.216Z,11.27
2023-01-29T06:36:59.969Z,12.10
2023-01-29T06:40:05.484Z,11.02
2023-01-29T06:43:10.428Z,11.88
2023-01-29T06:46:15.532Z,13.25
2023-01-29T06:49:21.412Z,13.55
2023-01-29T06:52:29.507Z,14.82
2023-01-29T06:55:35.063Z,14.70
2023-01-29T06:58:40.733Z,12.73
2023-01-29T07:01:46.076Z,13.27
2023-01-29T07:04:51.782Z,11.45
2023-01-29T07:07:57.672Z,11.60
2023-01-29T07:11:03.429Z,11.15
2023-01-29T07:14:08.972Z,11.25
2023-01-29T07:17:14.612Z,13.15
2023-01-29T07:20:20.118Z,11.35
2023-01-29T07:23:25.819Z,12.40
2023-01-29T07:26:31.785Z,11.45
2023-01-29T07:29:37.580Z,11.18
2023-01-29T07:32:43.044Z,12.55
2023-01-29T07:35:48.310Z,12.65
2023-01-29T07:38:54.069Z,13.07
2023-01-29T07:41:58.965Z,11.77
2023-01-29T07:45:07.312Z,11.27
2023-01-29T07:48:13.622Z,12.93
2023-01-29T07:51:19.115Z,12.75
2023-01-29T07:54:24.692Z,10.88
2023-01-29T07:57:31.094Z,11.60
2023-01-29T08:00:36.895Z,12.35
2023-01-29T08:03:41.905Z,12.98
2023-01-29T08:06:47.088Z,12.88
2023-01-29T08:09:52.069Z,11.93
2023-01-29T08:12:58.860Z,13.05
2023-01-29T08:16:05.024Z,11.43
2023-01-29T08:19:10.240Z,12.23
2023-01-29T08:22:16.739Z,11.75
2023-01-29T08:25:22.828Z,13.05
2023-01-29T08:28:28.983Z,13.13
2023-01-29T08:31:35.559Z,11.95
2023-01-29T08:34:40.959Z,13.68
2023-01-29T08:37:56.748Z,12.68
2023-01-29T08:41:02.353Z,10.88
2023-01-29T08:44:07.990Z,11.95
2023-01-29T08:47:13.241Z,12.75
2023-01-29T08:50:19.110Z,10.88
2023-01-29T08:53:25.230Z,11.43
2023-01-29T08:56:30.432Z,13.00
2023-01-29T08:59:35.344Z,14.43
2023-01-29T09:02:40.748Z,12.90
2023-01-29T09:05:47.057Z,14.50
2023-01-29T09:08:52.168Z,14.23
2023-01-29T09:11:57.348Z,13.35
2023-01-29T09:15:02.519Z,13.07
2023-01-29T09:18:07.395Z,13.63
2023-01-29T09:21:12.548Z,13.60
2023-01-29T09:24:17.695Z,14.32
2023-01-29T09:27:22.661Z,13.45
2023-01-29T09:30:27.898Z,13.75
2023-01-29T09:33:33.260Z,13.00
2023-01-29T09:36:38.421Z,13.73
2023-01-29T09:39:44.024Z,13.43
2023-01-29T09:42:55.958Z,12.35
2023-01-29T09:46:08.419Z,12.88
2023-01-29T09:49:52.472Z,13.80
2023-01-29T09:53:11.222Z,14.15
2023-01-29T09:56:21.973Z,13.02
2023-01-29T09:59:32.755Z,13.00
2023-01-29T10:02:48.633Z,14.80
2023-01-29T10:06:22.090Z,14.85
2023-01-29T10:10:03.287Z,15.25
2023-01-29T10:13:24.311Z,14.40
2023-01-29T10:16:41.882Z,15.73
2023-01-29T10:20:22.521Z,14.63
2023-01-29T10:23:34.492Z,15.68
2023-01-29T10:26:41.686Z,15.45
2023-01-29T10:29:50.864Z,14.73
2023-01-29T10:33:02.081Z,15.20
2023-01-29T10:36:13.493Z,14.30
2023-01-29T10:39:25.004Z,14.95
2023-01-29T10:42:46.876Z,13.67
2023-01-29T10:46:23.138Z,13.65
2023-01-29T10:49:45.787Z,12.30
2023-01-29T10:53:05.761Z,14.73
2023-01-29T10:56:30.163Z,14.40
2023-01-29T11:00:13.636Z,12.32
2023-01-29T11:03:28.248Z,12.82
2023-01-29T11:06:36.915Z,12.13
2023-01-29T11:09:58.198Z,11.45
2023-01-29T11:13:06.421Z,12.50
2023-01-29T11:16:12.064Z,12.15
2023-01-29T11:19:18.079Z,11.18
2023-01-29T11:22:29.403Z,11.88
2023-01-29T11:25:34.855Z,10.30
2023-01-29T11:28:41.551Z,9.77
2023-01-29T11:31:48.602Z,10.80
2023-01-29T11:35:20.893Z,11.40
2023-01-29T11:38:29.369Z,10.07
2023-01-29T11:41:44.078Z,11.20
2023-01-29T11:44:50.380Z,11.38
2023-01-29T11:47:57.396Z,10.98
2023-01-29T11:51:05.554Z,11.63
2023-01-29T11:54:20.079Z,10.38
2023-01-29T11:57:33.981Z,10.45
2023-01-29T12:00:41.605Z,10.23
2023-01-29T12:03:53.581Z,11.27
2023-01-29T12:06:58.917Z,10.85
2023-01-29T12:10:04.898Z,10.55
2023-01-29T12:13:22.486Z,11.52
2023-01-29T12:16:57.212Z,10.55
2023-01-29T12:20:13.171Z,10.15
2023-01-29T12:23:36.985Z,10.00
2023-01-29T12:26:55.764Z,10.65
2023-01-29T12:30:26.518Z,11.63
2023-01-29T12:33:57.751Z,10.68
2023-01-29T12:37:25.478Z,10.80
2023-01-29T12:40:44.524Z,10.73
2023-01-29T12:43:58.583Z,9.95
2023-01-29T12:47:09.000Z,10.32
2023-01-29T12:50:18.420Z,10.40
2023-01-29T12:53:57.494Z,10.07
2023-01-29T12:57:09.010Z,9.98
2023-01-29T13:00:19.797Z,9.93
2023-01-29T13:03:25.841Z,9.35
2023-01-29T13:06:36.738Z,10.68
2023-01-29T13:09:51.116Z,10.85
2023-01-29T13:13:04.471Z,9.32
2023-01-29T13:16:13.469Z,9.60
2023-01-29T13:19:33.505Z,9.48
2023-01-29T13:22:41.465Z,8.98
2023-01-29T13:25:49.859Z,9.38
2023-01-29T13:28:55.634Z,9.82
2023-01-29T13:32:03.693Z,8.90
2023-01-29T13:35:16.098Z,8.48
2023-01-29T13:38:35.967Z,8.73
2023-01-29T13:41:43.799Z,7.15
2023-01-29T13:44:53.426Z,7.70
2023-01-29T13:48:27.824Z,8.45
2023-01-29T13:51:37.007Z,7.18
2023-01-29T13:54:57.802Z,7.43
2023-01-29T13:58:04.090Z,9.45
2023-01-29T14:01:09.588Z,8.43
2023-01-29T14:04:28.915Z,6.80
2023-01-29T14:08:27.003Z,7.90
2023-01-29T14:11:36.565Z,8.48
2023-01-29T14:14:50.819Z,9.35
2023-01-29T14:18:16.943Z,9.70
2023-01-29T14:21:28.909Z,9.95
2023-01-29T14:24:34.398Z,10.05
2023-01-29T14:27:39.904Z,10.30
2023-01-29T14:30:48.925Z,9.52
2023-01-29T14:34:00.405Z,8.80
2023-01-29T14:37:34.626Z,8.45
2023-01-29T14:40:42.421Z,9.07
2023-01-29T14:43:48.123Z,9.52
2023-01-29T14:46:53.425Z,9.88
2023-01-29T14:50:23.358Z,9.13
2023-01-29T14:53:34.191Z,10.40
2023-01-29T14:56:54.770Z,9.27
2023-01-29T15:00:07.417Z,8.80
2023-01-29T15:03:20.506Z,11.48
2023-01-29T15:06:48.252Z,10.15
2023-01-29T15:10:21.443Z,10.25
2023-01-29T15:13:36.329Z,9.63
2023-01-29T15:17:07.838Z,11.40
2023-01-29T15:20:30.304Z,10.00
2023-01-29T15:23:35.871Z,10.43
2023-01-29T15:26:43.629Z,10.43
2023-01-29T15:29:59.727Z,11.73
2023-01-29T15:33:11.108Z,10.75
2023-01-29T15:36:24.256Z,10.25
2023-01-29T15:39:31.956Z,11.52
2023-01-29T15:42:46.939Z,10.65
2023-01-29T15:45:56.738Z,10.95
2023-01-29T15:49:08.708Z,11.32
2023-01-29T15:52:35.430Z,10.43
2023-01-29T15:55:41.966Z,11.43
2023-01-29T15:58:49.672Z,11.63
2023-01-29T16:01:56.655Z,12.80
2023-01-29T16:05:03.167Z,12.07
2023-01-29T16:08:14.526Z,11.63
2023-01-29T16:11:20.658Z,13.15
2023-01-29T16:14:28.093Z,12.15
2023-01-29T16:17:35.997Z,12.15
2023-01-29T16:20:47.619Z,12.73
2023-01-29T16:23:57.230Z,14.57
2023-01-29T16:27:13.280Z,13.05
2023-01-29T16:30:19.211Z,13.00
2023-01-29T16:33:36.145Z,13.75
2023-01-29T16:36:48.750Z,12.95
2023-01-29T16:39:54.824Z,13.23
2023-01-29T16:43:09.194Z,13.75
2023-01-29T16:46:52.684Z,13.93
2023-01-29T16:50:06.062Z,12.90
2023-01-29T16:53:12.982Z,12.82
2023-01-29T16:56:26.091Z,14.20
2023-01-29T16:59:31.490Z,13.60
2023-01-29T17:02:39.842Z,14.13
2023-01-29T17:05:46.320Z,13.70
2023-01-29T17:08:52.651Z,13.77
2023-01-29T17:12:01.862Z,12.65
2023-01-29T17:15:32.293Z,13.32
2023-01-29T17:18:37.636Z,11.68
2023-01-29T17:21:43.654Z,13.15
2023-01-29T17:24:51.863Z,13.73
2023-01-29T17:28:01.091Z,13.10
2023-01-29T17:31:08.097Z,13.55
2023-01-29T17:34:15.215Z,14.27
2023-01-29T17:37:20.411Z,15.68
2023-01-29T17:40:36.995Z,15.05
2023-01-29T17:43:44.629Z,15.73
2023-01-29T17:46:49.999Z,15.23
2023-01-29T17:49:55.429Z,15.57
2023-01-29T17:53:01.912Z,14.02
2023-01-29T17:56:07.469Z,16.33
2023-01-29T17:59:18.284Z,19.00
2023-01-29T18:02:28.942Z,18.42
2023-01-29T18:05:35.716Z,17.13
2023-01-29T18:08:41.188Z,16.08
2023-01-29T18:11:47.859Z,15.95
2023-01-29T18:14:53.215Z,15.70
2023-01-29T18:17:59.099Z,15.27
2023-01-29T18:21:04.539Z,15.38
2023-01-29T18:24:10.150Z,15.13
2023-01-29T18:27:15.511Z,17.60
2023-01-29T18:30:21.701Z,15.38
2023-01-29T18:33:26.980Z,14.43
2023-01-29T18:36:32.565Z,15.32
2023-01-29T18:39:38.172Z,15.73
2023-01-29T18:42:47.233Z,16.00
2023-01-29T18:45:59.100Z,15.98
2023-01-29T18:49:05.461Z,15.95
2023-01-29T18:52:11.530Z,17.58
2023-01-29T18:55:17.214Z,18.02
2023-01-29T18:58:27.272Z,19.45
2023-01-29T19:01:40.278Z,21.10
2023-01-29T19:04:46.198Z,20.30
2023-01-29T19:07:52.692Z,18.95
2023-01-29T19:11:02.647Z,18.35
2023-01-29T19:14:07.905Z,18.98
2023-01-29T19:17:13.598Z,17.90
2023-01-29T19:20:19.594Z,19.70
2023-01-29T19:23:25.256Z,19.35
2023-01-29T19:26:34.380Z,18.17
2023-01-29T19:29:40.112Z,19.02
2023-01-29T19:32:45.570Z,18.85
2023-01-29T19:35:51.369Z,19.40
2023-01-29T19:38:57.400Z,18.17
2023-01-29T19:42:02.829Z,17.75
2023-01-29T19:45:09.151Z,16.77
2023-01-29T19:48:17.920Z,17.90
2023-01-29T19:51:23.630Z,18.23
2023-01-29T19:54:29.767Z,17.92
2023-01-29T19:57:35.380Z,20.63
2023-01-29T20:00:40.937Z,22.00
2023-01-29T20:03:48.333Z,24.05
2023-01-29T20:06:53.602Z,26.55
2023-01-29T20:09:59.278Z,23.98
2023-01-29T20:13:06.304Z,22.15
2023-01-29T20:16:11.626Z,20.25
2023-01-29T20:19:17.123Z,19.45
2023-01-29T20:22:22.661Z,21.30
2023-01-29T20:25:28.083Z,23.85
2023-01-29T20:28:35.037Z,24.45
2023-01-29T20:31:40.499Z,23.55
2023-01-29T20:34:49.865Z,20.67
2023-01-29T20:37:54.991Z,20.77
2023-01-29T20:41:14.571Z,19.77
2023-01-29T20:44:20.217Z,19.13
2023-01-29T20:47:25.945Z,19.52
2023-01-29T20:50:31.299Z,20.45
2023-01-29T20:53:37.567Z,21.38
2023-01-29T20:56:45.123Z,21.88
2023-01-29T20:59:54.406Z,20.90
2023-01-29T21:02:59.655Z,20.85
2023-01-29T21:06:05.559Z,21.38
2023-01-29T21:09:11.136Z,20.63
2023-01-29T21:12:16.776Z,18.95
2023-01-29T21:15:23.655Z,19.67
2023-01-29T21:18:29.057Z,19.80
2023-01-29T21:21:34.862Z,20.70
2023-01-29T21:24:40.218Z,20.65
2023-01-29T21:27:45.722Z,20.55
2023-01-29T21:30:51.309Z,19.63
2023-01-29T21:33:56.556Z,21.35
2023-01-29T21:37:02.155Z,23.58
2023-01-29T21:40:09.513Z,21.40
2023-01-29T21:43:16.378Z,20.88
2023-01-29T21:46:22.035Z,21.92
2023-01-29T21:49:28.127Z,20.77
2023-01-29T21:52:33.480Z,21.88
2023-01-29T21:55:39.361Z,21.55
2023-01-29T21:58:47.591Z,21.48
2023-01-29T22:01:53.383Z,21.13
2023-01-29T22:05:18.679Z,22.58
2023-01-29T22:08:25.280Z,23.73
2023-01-29T22:11:30.690Z,22.63
2023-01-29T22:14:35.972Z,23.30
2023-01-29T22:17:42.145Z,23.40
2023-01-29T22:20:54.151Z,22.58
2023-01-29T22:23:59.676Z,23.75
2023-01-29T22:27:05.123Z,23.50
2023-01-29T22:30:11.619Z,22.92
2023-01-29T22:33:17.716Z,24.88
2023-01-29T22:36:23.442Z,25.33
2023-01-29T22:39:29.032Z,24.48
2023-01-29T22:42:34.835Z,24.27
2023-01-29T22:45:40.212Z,24.85
2023-01-29T22:48:46.234Z,21.98
2023-01-29T22:52:10.676Z,22.52
2023-01-29T22:55:16.219Z,24.42
2023-01-29T22:58:21.682Z,22.50
2023-01-29T23:01:29.870Z,25.80
2023-01-29T23:04:35.933Z,23.48
2023-01-29T23:07:41.600Z,23.25
2023-01-29T23:10:47.182Z,23.20
2023-01-29T23:13:54.730Z,22.05
2023-01-29T23:17:00.886Z,22.27
2023-01-29T23:20:07.197Z,21.77
2023-01-29T23:23:12.845Z,23.50
2023-01-29T23:26:36.915Z,22.08
2023-01-29T23:29:44.881Z,24.65
2023-01-29T23:32:50.492Z,21.85
2023-01-29T23:35:55.800Z,22.15
2023-01-29T23:39:01.450Z,26.10
2023-01-29T23:42:06.766Z,24.23
2023-01-29T23:45:12.272Z,24.95
2023-01-29T23:48:17.913Z,25.63
2023-01-29T23:51:23.849Z,27.15
2023-01-29T23:54:29.473Z,27.08
2023-01-29T23:57:35.222Z,28.35
